sensor_id;sensor_type;location;lat;lon;timestamp;pressure;altitude;pressure_sealevel;temperature;humidity
61676;BME280;47574;52.090;5.244;2023-03-14T00:01:27;98836.0;;;16.11;56.1
61676;BME280;47574;52.090;5.244;2023-03-14T00:03:03;98831.0;;;15.89;56.36
61676;BME280;47574;52.090;5.244;2023-03-14T00:06:17;98838.0;;;15.37;56.72
61676;BME280;47574;52.090;5.244;2023-03-14T00:07:53;98838.0;;;15.68;56.64
61676;BME280;47574;52.090;5.244;2023-03-14T00:09:29;98837.0;;;15.58;56.37
61676;BME280;47574;52.090;5.244;2023-03-14T00:11:06;98835.0;;;15.65;56.13
61676;BME280;47574;52.090;5.244;2023-03-14T00:14:20;98835.0;;;15.98;55.72
61676;BME280;47574;52.090;5.244;2023-03-14T00:16:01;98835.0;;;16.12;55.22
61676;BME280;47574;52.090;5.244;2023-03-14T00:17:38;98836.0;;;16.14;55.0
61676;BME280;47574;52.090;5.244;2023-03-14T00:20:51;98837.0;;;16.31;55.02
61676;BME280;47574;52.090;5.244;2023-03-14T00:22:29;98840.0;;;16.2;54.74
61676;BME280;47574;52.090;5.244;2023-03-14T00:24:07;98840.0;;;16.09;54.79
61676;BME280;47574;52.090;5.244;2023-03-14T00:25:43;98832.0;;;15.81;55.11
61676;BME280;47574;52.090;5.244;2023-03-14T00:28:55;98828.0;;;15.66;55.37
61676;BME280;47574;52.090;5.244;2023-03-14T00:30:31;98835.0;;;15.94;54.74
61676;BME280;47574;52.090;5.244;2023-03-14T00:32:07;98827.0;;;15.39;55.41
61676;BME280;47574;52.090;5.244;2023-03-14T00:35:20;98828.0;;;15.45;55.08
61676;BME280;47574;52.090;5.244;2023-03-14T00:36:57;98828.0;;;15.7;54.67
61676;BME280;47574;52.090;5.244;2023-03-14T00:38:33;98830.0;;;15.81;54.65
61676;BME280;47574;52.090;5.244;2023-03-14T00:41:46;98843.0;;;15.63;54.49
61676;BME280;47574;52.090;5.244;2023-03-14T00:43:22;98841.0;;;15.38;54.47
61676;BME280;47574;52.090;5.244;2023-03-14T00:44:59;98838.0;;;15.12;55.6
61676;BME280;47574;52.090;5.244;2023-03-14T00:46:35;98833.0;;;15.27;54.84
61676;BME280;47574;52.090;5.244;2023-03-14T00:49:48;98828.0;;;15.62;54.21
61676;BME280;47574;52.090;5.244;2023-03-14T00:51:24;98833.0;;;15.56;54.48
61676;BME280;47574;52.090;5.244;2023-03-14T00:53:00;98834.0;;;15.32;55.15
61676;BME280;47574;52.090;5.244;2023-03-14T00:56:12;98832.0;;;15.58;54.94
61676;BME280;47574;52.090;5.244;2023-03-14T00:57:49;98844.0;;;15.65;55.16
61676;BME280;47574;52.090;5.244;2023-03-14T00:59:25;98843.0;;;15.1;56.61
61676;BME280;47574;52.090;5.244;2023-03-14T01:02:42;98836.0;;;14.75;57.47
61676;BME280;47574;52.090;5.244;2023-03-14T01:04:20;98841.0;;;14.44;58.54
61676;BME280;47574;52.090;5.244;2023-03-14T01:06:06;98838.0;;;14.77;58.18
61676;BME280;47574;52.090;5.244;2023-03-14T01:07:42;98844.0;;;15.14;57.37
61676;BME280;47574;52.090;5.244;2023-03-14T01:10:54;98840.0;;;14.75;58.84
61676;BME280;47574;52.090;5.244;2023-03-14T01:12:31;98839.0;;;14.95;58.21
61676;BME280;47574;52.090;5.244;2023-03-14T01:14:07;98849.0;;;14.71;58.8
61676;BME280;47574;52.090;5.244;2023-03-14T01:17:19;98846.0;;;14.73;59.78
61676;BME280;47574;52.090;5.244;2023-03-14T01:18:55;98860.0;;;14.48;61.02
61676;BME280;47574;52.090;5.244;2023-03-14T01:20:32;98849.0;;;14.48;61.12
61676;BME280;47574;52.090;5.244;2023-03-14T01:23:45;98853.0;;;14.44;61.14
61676;BME280;47574;52.090;5.244;2023-03-14T01:25:22;98861.0;;;14.34;61.68
61676;BME280;47574;52.090;5.244;2023-03-14T01:26:58;98860.0;;;14.36;61.91
61676;BME280;47574;52.090;5.244;2023-03-14T01:28:34;98859.0;;;14.67;61.0
61676;BME280;47574;52.090;5.244;2023-03-14T01:31:49;98857.0;;;14.73;60.7
61676;BME280;47574;52.090;5.244;2023-03-14T01:33:25;98853.0;;;14.55;61.32
61676;BME280;47574;52.090;5.244;2023-03-14T01:35:01;98850.0;;;14.16;61.89
61676;BME280;47574;52.090;5.244;2023-03-14T01:38:14;98850.0;;;14.35;61.52
61676;BME280;47574;52.090;5.244;2023-03-14T01:39:50;98848.0;;;14.68;60.56
61676;BME280;47574;52.090;5.244;2023-03-14T01:41:26;98843.0;;;14.57;60.83
61676;BME280;47574;52.090;5.244;2023-03-14T01:44:52;98835.0;;;14.59;60.52
61676;BME280;47574;52.090;5.244;2023-03-14T01:46:34;98833.0;;;14.98;60.01
61676;BME280;47574;52.090;5.244;2023-03-14T01:48:12;98831.0;;;15.03;59.28
61676;BME280;47574;52.090;5.244;2023-03-14T01:49:50;98828.0;;;15.0;59.28
61676;BME280;47574;52.090;5.244;2023-03-14T02:03:07;98813.0;;;15.06;58.29
61676;BME280;47574;52.090;5.244;2023-03-14T02:35:34;98790.0;;;14.69;58.5
61676;BME280;47574;52.090;5.244;2023-03-14T02:39:03;98792.0;;;14.61;59.2
61676;BME280;47574;52.090;5.244;2023-03-14T02:40:42;98790.0;;;14.98;58.24
61676;BME280;47574;52.090;5.244;2023-03-14T02:42:21;98789.0;;;14.63;59.03
61676;BME280;47574;52.090;5.244;2023-03-14T02:43:58;98788.0;;;14.64;58.89
61676;BME280;47574;52.090;5.244;2023-03-14T02:47:20;98790.0;;;14.62;58.96
61676;BME280;47574;52.090;5.244;2023-03-14T02:49:01;98790.0;;;14.96;58.58
61676;BME280;47574;52.090;5.244;2023-03-14T02:50:41;98785.0;;;14.95;58.27
61676;BME280;47574;52.090;5.244;2023-03-14T02:52:17;98784.0;;;15.17;57.64
61676;BME280;47574;52.090;5.244;2023-03-14T02:55:29;98786.0;;;15.05;58.1
61676;BME280;47574;52.090;5.244;2023-03-14T02:57:05;98782.0;;;15.06;58.17
61676;BME280;47574;52.090;5.244;2023-03-14T02:58:41;98777.0;;;15.09;57.88
61676;BME280;47574;52.090;5.244;2023-03-14T03:01:55;98780.0;;;15.48;57.04
61676;BME280;47574;52.090;5.244;2023-03-14T03:03:31;98780.0;;;15.13;57.84
61676;BME280;47574;52.090;5.244;2023-03-14T03:05:07;98780.0;;;15.37;57.41
61676;BME280;47574;52.090;5.244;2023-03-14T03:08:21;98781.0;;;14.83;58.64
61676;BME280;47574;52.090;5.244;2023-03-14T03:09:57;98783.0;;;14.81;58.9
61676;BME280;47574;52.090;5.244;2023-03-14T03:11:33;98785.0;;;15.2;58.08
61676;BME280;47574;52.090;5.244;2023-03-14T03:13:10;98780.0;;;14.94;58.61
61676;BME280;47574;52.090;5.244;2023-03-14T03:16:22;98774.0;;;15.27;57.64
61676;BME280;47574;52.090;5.244;2023-03-14T03:17:58;98774.0;;;15.16;57.95
61676;BME280;47574;52.090;5.244;2023-03-14T03:19:34;98772.0;;;15.17;57.76
61676;BME280;47574;52.090;5.244;2023-03-14T03:22:47;98772.0;;;15.43;57.32
61676;BME280;47574;52.090;5.244;2023-03-14T03:24:24;98767.0;;;15.56;56.89
61676;BME280;47574;52.090;5.244;2023-03-14T03:26:00;98765.0;;;15.4;56.95
61676;BME280;47574;52.090;5.244;2023-03-14T03:29:14;98757.0;;;15.38;56.98
61676;BME280;47574;52.090;5.244;2023-03-14T03:30:50;98758.0;;;15.0;57.92
61676;BME280;47574;52.090;5.244;2023-03-14T03:32:26;98753.0;;;15.12;57.79
61676;BME280;47574;52.090;5.244;2023-03-14T03:34:03;98748.0;;;15.29;57.14
61676;BME280;47574;52.090;5.244;2023-03-14T03:37:20;98750.0;;;15.42;56.73
61676;BME280;47574;52.090;5.244;2023-03-14T03:38:56;98747.0;;;15.44;56.85
61676;BME280;47574;52.090;5.244;2023-03-14T03:40:32;98753.0;;;15.44;56.63
61676;BME280;47574;52.090;5.244;2023-03-14T03:43:45;98755.0;;;15.57;56.46
61676;BME280;47574;52.090;5.244;2023-03-14T03:45:21;98750.0;;;15.17;56.72
61676;BME280;47574;52.090;5.244;2023-03-14T03:46:57;98750.0;;;15.15;56.93
61676;BME280;47574;52.090;5.244;2023-03-14T03:50:10;98753.0;;;14.64;57.97
61676;BME280;47574;52.090;5.244;2023-03-14T03:51:46;98749.0;;;14.96;57.08
61676;BME280;47574;52.090;5.244;2023-03-14T03:53:22;98751.0;;;15.12;56.66
61676;BME280;47574;52.090;5.244;2023-03-14T03:54:59;98749.0;;;15.04;56.73
61676;BME280;47574;52.090;5.244;2023-03-14T03:58:11;98747.0;;;15.01;56.96
61676;BME280;47574;52.090;5.244;2023-03-14T03:59:47;98745.0;;;14.97;57.14
61676;BME280;47574;52.090;5.244;2023-03-14T04:01:23;98744.0;;;14.6;57.44
61676;BME280;47574;52.090;5.244;2023-03-14T04:04:35;98742.0;;;15.0;56.84
61676;BME280;47574;52.090;5.244;2023-03-14T04:07:49;98748.0;;;15.05;56.57
61676;BME280;47574;52.090;5.244;2023-03-14T04:11:02;98750.0;;;15.32;55.94
61676;BME280;47574;52.090;5.244;2023-03-14T04:12:39;98750.0;;;15.35;55.68
61676;BME280;47574;52.090;5.244;2023-03-14T04:14:15;98743.0;;;15.07;56.27
61676;BME280;47574;52.090;5.244;2023-03-14T04:15:52;98749.0;;;14.99;56.74
61676;BME280;47574;52.090;5.244;2023-03-14T04:19:04;98750.0;;;15.05;56.35
61676;BME280;47574;52.090;5.244;2023-03-14T04:20:41;98747.0;;;15.15;56.12
61676;BME280;47574;52.090;5.244;2023-03-14T04:22:17;98755.0;;;15.36;55.81
61676;BME280;47574;52.090;5.244;2023-03-14T04:25:30;98757.0;;;15.51;55.33
61676;BME280;47574;52.090;5.244;2023-03-14T04:27:06;98752.0;;;15.14;56.27
61676;BME280;47574;52.090;5.244;2023-03-14T04:28:42;98759.0;;;15.54;55.35
61676;BME280;47574;52.090;5.244;2023-03-14T04:31:55;98747.0;;;15.29;55.85
61676;BME280;47574;52.090;5.244;2023-03-14T04:33:32;98752.0;;;15.27;56.11
61676;BME280;47574;52.090;5.244;2023-03-14T04:35:08;98750.0;;;15.0;56.58
61676;BME280;47574;52.090;5.244;2023-03-14T04:36:44;98753.0;;;15.48;55.94
61676;BME280;47574;52.090;5.244;2023-03-14T04:39:56;98750.0;;;15.32;56.15
61676;BME280;47574;52.090;5.244;2023-03-14T04:41:32;98742.0;;;15.48;56.0
61676;BME280;47574;52.090;5.244;2023-03-14T04:43:10;98741.0;;;15.5;55.88
61676;BME280;47574;52.090;5.244;2023-03-14T04:46:23;98740.0;;;15.45;55.72
61676;BME280;47574;52.090;5.244;2023-03-14T04:47:59;98734.0;;;15.23;56.6
61676;BME280;47574;52.090;5.244;2023-03-14T04:49:35;98734.0;;;15.07;56.76
61676;BME280;47574;52.090;5.244;2023-03-14T04:52:47;98736.0;;;15.27;56.48
61676;BME280;47574;52.090;5.244;2023-03-14T04:54:23;98741.0;;;15.32;56.54
61676;BME280;47574;52.090;5.244;2023-03-14T04:55:59;98736.0;;;15.13;57.13
61676;BME280;47574;52.090;5.244;2023-03-14T04:59:13;98735.0;;;15.18;56.71
61676;BME280;47574;52.090;5.244;2023-03-14T05:00:49;98734.0;;;14.91;57.59
61676;BME280;47574;52.090;5.244;2023-03-14T05:02:26;98740.0;;;14.56;59.22
61676;BME280;47574;52.090;5.244;2023-03-14T05:04:02;98740.0;;;14.86;59.22
61676;BME280;47574;52.090;5.244;2023-03-14T05:07:14;98736.0;;;15.19;58.71
61676;BME280;47574;52.090;5.244;2023-03-14T05:08:50;98740.0;;;14.75;59.83
61676;BME280;47574;52.090;5.244;2023-03-14T05:10:26;98741.0;;;15.16;59.24
61676;BME280;47574;52.090;5.244;2023-03-14T05:13:39;98731.0;;;15.28;59.35
61676;BME280;47574;52.090;5.244;2023-03-14T05:15:15;98725.0;;;15.1;59.81
61676;BME280;47574;52.090;5.244;2023-03-14T05:16:51;98718.0;;;14.99;59.5
61676;BME280;47574;52.090;5.244;2023-03-14T05:20:04;98721.0;;;15.13;59.52
61676;BME280;47574;52.090;5.244;2023-03-14T05:21:40;98722.0;;;15.1;59.72
61676;BME280;47574;52.090;5.244;2023-03-14T05:23:16;98722.0;;;15.35;59.42
61676;BME280;47574;52.090;5.244;2023-03-14T05:24:53;98711.0;;;15.02;60.12
61676;BME280;47574;52.090;5.244;2023-03-14T05:28:06;98708.0;;;15.12;59.91
61676;BME280;47574;52.090;5.244;2023-03-14T05:29:42;98713.0;;;15.26;59.58
61676;BME280;47574;52.090;5.244;2023-03-14T05:31:18;98711.0;;;15.27;59.45
61676;BME280;47574;52.090;5.244;2023-03-14T05:34:30;98715.0;;;15.18;59.86
61676;BME280;47574;52.090;5.244;2023-03-14T05:36:07;98718.0;;;15.07;60.21
61676;BME280;47574;52.090;5.244;2023-03-14T05:37:44;98712.0;;;15.16;59.99
61676;BME280;47574;52.090;5.244;2023-03-14T05:40:56;98719.0;;;15.17;60.19
61676;BME280;47574;52.090;5.244;2023-03-14T05:42:33;98712.0;;;15.23;60.16
61676;BME280;47574;52.090;5.244;2023-03-14T05:44:09;98716.0;;;15.25;60.16
61676;BME280;47574;52.090;5.244;2023-03-14T05:47:21;98711.0;;;14.66;61.47
61676;BME280;47574;52.090;5.244;2023-03-14T05:48:58;98714.0;;;14.9;61.14
61676;BME280;47574;52.090;5.244;2023-03-14T05:50:35;98715.0;;;15.22;60.35
61676;BME280;47574;52.090;5.244;2023-03-14T05:52:12;98711.0;;;15.1;60.78
61676;BME280;47574;52.090;5.244;2023-03-14T05:55:24;98714.0;;;15.16;60.54
61676;BME280;47574;52.090;5.244;2023-03-14T05:57:01;98709.0;;;14.99;61.12
61676;BME280;47574;52.090;5.244;2023-03-14T05:58:37;98710.0;;;15.08;60.55
61676;BME280;47574;52.090;5.244;2023-03-14T06:01:50;98703.0;;;15.12;60.72
61676;BME280;47574;52.090;5.244;2023-03-14T06:03:26;98706.0;;;15.01;61.02
61676;BME280;47574;52.090;5.244;2023-03-14T06:05:03;98714.0;;;14.59;62.05
61676;BME280;47574;52.090;5.244;2023-03-14T06:08:17;98714.0;;;14.81;61.25
61676;BME280;47574;52.090;5.244;2023-03-14T06:09:53;98718.0;;;14.62;62.11
61676;BME280;47574;52.090;5.244;2023-03-14T06:11:29;98715.0;;;14.53;62.7
61676;BME280;47574;52.090;5.244;2023-03-14T06:13:05;98716.0;;;14.74;61.84
61676;BME280;47574;52.090;5.244;2023-03-14T06:16:18;98724.0;;;14.7;62.26
61676;BME280;47574;52.090;5.244;2023-03-14T06:17:54;98718.0;;;14.68;62.24
61676;BME280;47574;52.090;5.244;2023-03-14T06:19:31;98719.0;;;14.97;61.67
61676;BME280;47574;52.090;5.244;2023-03-14T06:22:44;98721.0;;;15.12;61.6
61676;BME280;47574;52.090;5.244;2023-03-14T06:24:20;98714.0;;;14.79;62.54
61676;BME280;47574;52.090;5.244;2023-03-14T06:25:56;98726.0;;;14.63;63.07
61676;BME280;47574;52.090;5.244;2023-03-14T06:30:45;98780.0;;;13.77;64.45
61676;BME280;47574;52.090;5.244;2023-03-14T06:32:22;98802.0;;;14.26;62.8
61676;BME280;47574;52.090;5.244;2023-03-14T06:33:58;98807.0;;;14.26;61.61
61676;BME280;47574;52.090;5.244;2023-03-14T06:37:11;98821.0;;;14.2;60.64
61676;BME280;47574;52.090;5.244;2023-03-14T06:38:47;98826.0;;;14.24;60.07
61676;BME280;47574;52.090;5.244;2023-03-14T06:40:23;98831.0;;;14.07;60.0
61676;BME280;47574;52.090;5.244;2023-03-14T06:43:35;98846.0;;;13.98;60.03
61676;BME280;47574;52.090;5.244;2023-03-14T06:45:12;98851.0;;;13.51;61.15
61676;BME280;47574;52.090;5.244;2023-03-14T06:46:49;98853.0;;;13.6;60.65
61676;BME280;47574;52.090;5.244;2023-03-14T06:50:01;98860.0;;;13.53;60.89
61676;BME280;47574;52.090;5.244;2023-03-14T06:51:40;98865.0;;;13.14;61.83
61676;BME280;47574;52.090;5.244;2023-03-14T06:53:16;98862.0;;;13.32;61.29
61676;BME280;47574;52.090;5.244;2023-03-14T06:54:52;98870.0;;;13.58;61.14
61676;BME280;47574;52.090;5.244;2023-03-14T06:58:05;98872.0;;;13.52;60.83
61676;BME280;47574;52.090;5.244;2023-03-14T06:59:41;98874.0;;;13.76;60.55
61676;BME280;47574;52.090;5.244;2023-03-14T07:01:21;98884.0;;;13.8;61.09
61676;BME280;47574;52.090;5.244;2023-03-14T07:04:34;98887.0;;;13.54;60.91
61676;BME280;47574;52.090;5.244;2023-03-14T07:06:10;98893.0;;;13.74;60.52
61676;BME280;47574;52.090;5.244;2023-03-14T07:07:46;98901.0;;;13.56;60.6
61676;BME280;47574;52.090;5.244;2023-03-14T07:10:59;98906.0;;;13.58;60.96
61676;BME280;47574;52.090;5.244;2023-03-14T07:12:35;98914.0;;;13.93;60.06
61676;BME280;47574;52.090;5.244;2023-03-14T07:14:11;98922.0;;;13.8;60.48
61676;BME280;47574;52.090;5.244;2023-03-14T07:15:47;98930.0;;;13.88;60.37
61676;BME280;47574;52.090;5.244;2023-03-14T07:19:00;98937.0;;;13.77;60.58
61676;BME280;47574;52.090;5.244;2023-03-14T07:20:36;98949.0;;;13.43;60.66
61676;BME280;47574;52.090;5.244;2023-03-14T07:22:13;98960.0;;;13.45;60.29
61676;BME280;47574;52.090;5.244;2023-03-14T07:25:25;98970.0;;;13.71;59.56
61676;BME280;47574;52.090;5.244;2023-03-14T07:27:02;98983.0;;;13.48;60.23
61676;BME280;47574;52.090;5.244;2023-03-14T07:28:38;98990.0;;;13.38;60.36
61676;BME280;47574;52.090;5.244;2023-03-14T07:31:50;98999.0;;;13.33;60.7
61676;BME280;47574;52.090;5.244;2023-03-14T07:33:26;99008.0;;;13.38;60.2
61676;BME280;47574;52.090;5.244;2023-03-14T07:35:03;99018.0;;;13.24;60.35
61676;BME280;47574;52.090;5.244;2023-03-14T07:36:40;99019.0;;;13.66;59.91
61676;BME280;47574;52.090;5.244;2023-03-14T07:39:52;99028.0;;;13.34;60.39
61676;BME280;47574;52.090;5.244;2023-03-14T07:41:28;99033.0;;;13.55;60.08
61676;BME280;47574;52.090;5.244;2023-03-14T07:43:05;99046.0;;;13.09;61.01
61676;BME280;47574;52.090;5.244;2023-03-14T07:46:17;99058.0;;;13.42;60.69
61676;BME280;47574;52.090;5.244;2023-03-14T07:47:52;99064.0;;;13.5;59.88
61676;BME280;47574;52.090;5.244;2023-03-14T07:49:28;99071.0;;;13.31;60.28
61676;BME280;47574;52.090;5.244;2023-03-14T07:52:41;99080.0;;;13.29;60.18
61676;BME280;47574;52.090;5.244;2023-03-14T07:54:17;99090.0;;;13.49;59.38
61676;BME280;47574;52.090;5.244;2023-03-14T07:55:53;99101.0;;;13.39;59.13
61676;BME280;47574;52.090;5.244;2023-03-14T07:59:05;99112.0;;;12.94;59.88
61676;BME280;47574;52.090;5.244;2023-03-14T08:00:42;99118.0;;;13.05;59.59
61676;BME280;47574;52.090;5.244;2023-03-14T08:02:19;99130.0;;;13.06;59.21
61676;BME280;47574;52.090;5.244;2023-03-14T08:03:55;99134.0;;;12.68;59.58
61676;BME280;47574;52.090;5.244;2023-03-14T08:07:10;99139.0;;;12.73;59.4
61676;BME280;47574;52.090;5.244;2023-03-14T08:08:46;99149.0;;;12.74;59.51
61676;BME280;47574;52.090;5.244;2023-03-14T08:10:22;99160.0;;;12.94;59.04
61676;BME280;47574;52.090;5.244;2023-03-14T08:13:35;99172.0;;;12.77;59.39
61676;BME280;47574;52.090;5.244;2023-03-14T08:15:13;99192.0;;;12.14;60.9
61676;BME280;47574;52.090;5.244;2023-03-14T08:16:49;99202.0;;;12.25;60.46
61676;BME280;47574;52.090;5.244;2023-03-14T08:20:03;99220.0;;;11.44;61.14
61676;BME280;47574;52.090;5.244;2023-03-14T08:21:40;99231.0;;;11.65;61.72
61676;BME280;47574;52.090;5.244;2023-03-14T08:23:16;99244.0;;;11.18;61.37
61676;BME280;47574;52.090;5.244;2023-03-14T08:24:51;99255.0;;;10.74;62.45
61676;BME280;47574;52.090;5.244;2023-03-14T08:28:04;99264.0;;;11.28;61.49
61676;BME280;47574;52.090;5.244;2023-03-14T08:29:41;99284.0;;;10.73;61.99
61676;BME280;47574;52.090;5.244;2023-03-14T08:31:17;99283.0;;;10.68;62.16
61676;BME280;47574;52.090;5.244;2023-03-14T08:34:33;99287.0;;;11.25;60.89
61676;BME280;47574;52.090;5.244;2023-03-14T08:36:10;99302.0;;;10.95;60.89
61676;BME280;47574;52.090;5.244;2023-03-14T08:37:46;99307.0;;;10.78;60.63
61676;BME280;47574;52.090;5.244;2023-03-14T08:41:00;99317.0;;;11.27;60.85
61676;BME280;47574;52.090;5.244;2023-03-14T08:42:37;99330.0;;;11.33;59.87
61676;BME280;47574;52.090;5.244;2023-03-14T08:44:14;99338.0;;;11.38;60.05
61676;BME280;47574;52.090;5.244;2023-03-14T08:45:50;99347.0;;;11.6;59.05
61676;BME280;47574;52.090;5.244;2023-03-14T08:49:02;99349.0;;;11.68;59.43
61676;BME280;47574;52.090;5.244;2023-03-14T08:50:40;99369.0;;;11.75;58.83
61676;BME280;47574;52.090;5.244;2023-03-14T08:52:17;99368.0;;;11.35;59.08
61676;BME280;47574;52.090;5.244;2023-03-14T08:55:29;99374.0;;;11.08;58.61
61676;BME280;47574;52.090;5.244;2023-03-14T08:57:05;99387.0;;;11.06;59.06
61676;BME280;47574;52.090;5.244;2023-03-14T08:58:42;99398.0;;;11.21;58.41
61676;BME280;47574;52.090;5.244;2023-03-14T09:01:55;99405.0;;;11.36;59.32
61676;BME280;47574;52.090;5.244;2023-03-14T09:03:31;99418.0;;;11.62;59.13
61676;BME280;47574;52.090;5.244;2023-03-14T09:05:08;99421.0;;;11.44;57.83
61676;BME280;47574;52.090;5.244;2023-03-14T09:06:44;99423.0;;;11.28;57.16
61676;BME280;47574;52.090;5.244;2023-03-14T09:09:57;99433.0;;;11.32;56.8
61676;BME280;47574;52.090;5.244;2023-03-14T09:11:33;99444.0;;;10.9;58.42
61676;BME280;47574;52.090;5.244;2023-03-14T09:13:09;99451.0;;;11.04;58.07
61676;BME280;47574;52.090;5.244;2023-03-14T09:16:21;99466.0;;;10.37;59.09
61676;BME280;47574;52.090;5.244;2023-03-14T09:17:57;99467.0;;;11.38;57.82
61676;BME280;47574;52.090;5.244;2023-03-14T09:19:34;99477.0;;;11.53;57.44
61676;BME280;47574;52.090;5.244;2023-03-14T09:22:45;99488.0;;;11.52;57.31
61676;BME280;47574;52.090;5.244;2023-03-14T09:24:22;99493.0;;;11.27;56.73
61676;BME280;47574;52.090;5.244;2023-03-14T09:25:58;99505.0;;;11.89;56.9
61676;BME280;47574;52.090;5.244;2023-03-14T09:27:35;99514.0;;;11.81;56.99
61676;BME280;47574;52.090;5.244;2023-03-14T09:30:47;99518.0;;;11.19;57.04
61676;BME280;47574;52.090;5.244;2023-03-14T09:32:23;99525.0;;;11.15;57.38
61676;BME280;47574;52.090;5.244;2023-03-14T09:33:59;99538.0;;;11.12;56.72
61676;BME280;47574;52.090;5.244;2023-03-14T09:37:12;99553.0;;;11.33;57.05
61676;BME280;47574;52.090;5.244;2023-03-14T09:38:48;99555.0;;;11.32;56.45
61676;BME280;47574;52.090;5.244;2023-03-14T09:40:27;99562.0;;;11.37;56.81
61676;BME280;47574;52.090;5.244;2023-03-14T09:44:00;99560.0;;;11.56;55.87
61676;BME280;47574;52.090;5.244;2023-03-14T09:45:39;99575.0;;;11.4;55.29
61676;BME280;47574;52.090;5.244;2023-03-14T09:47:18;99584.0;;;11.62;55.21
61676;BME280;47574;52.090;5.244;2023-03-14T09:48:55;99588.0;;;11.39;55.04
61676;BME280;47574;52.090;5.244;2023-03-14T09:52:15;99600.0;;;11.52;55.58
61676;BME280;47574;52.090;5.244;2023-03-14T09:53:55;99609.0;;;11.31;55.16
61676;BME280;47574;52.090;5.244;2023-03-14T09:55:31;99616.0;;;11.69;54.31
61676;BME280;47574;52.090;5.244;2023-03-14T09:57:11;99619.0;;;11.21;55.39
61676;BME280;47574;52.090;5.244;2023-03-14T10:00:31;99627.0;;;11.15;55.25
61676;BME280;47574;52.090;5.244;2023-03-14T10:02:16;99628.0;;;11.41;55.0
61676;BME280;47574;52.090;5.244;2023-03-14T10:03:55;99637.0;;;11.98;54.86
61676;BME280;47574;52.090;5.244;2023-03-14T10:05:32;99644.0;;;11.36;54.84
61676;BME280;47574;52.090;5.244;2023-03-14T10:08:50;99653.0;;;11.11;55.73
61676;BME280;47574;52.090;5.244;2023-03-14T10:10:26;99663.0;;;11.37;56.84
61676;BME280;47574;52.090;5.244;2023-03-14T10:12:03;99680.0;;;11.27;56.92
61676;BME280;47574;52.090;5.244;2023-03-14T10:13:48;99690.0;;;11.37;57.13
61676;BME280;47574;52.090;5.244;2023-03-14T10:17:08;99698.0;;;11.71;56.94
61676;BME280;47574;52.090;5.244;2023-03-14T10:18:46;99705.0;;;11.82;56.43
61676;BME280;47574;52.090;5.244;2023-03-14T10:20:28;99724.0;;;11.82;57.06
61676;BME280;47574;52.090;5.244;2023-03-14T10:22:11;99740.0;;;11.37;57.38
61676;BME280;47574;52.090;5.244;2023-03-14T10:25:28;99737.0;;;11.26;57.65
61676;BME280;47574;52.090;5.244;2023-03-14T10:27:18;99743.0;;;11.11;57.07
61676;BME280;47574;52.090;5.244;2023-03-14T10:29:02;99744.0;;;11.38;55.86
61676;BME280;47574;52.090;5.244;2023-03-14T10:30:43;99753.0;;;11.46;55.34
61676;BME280;47574;52.090;5.244;2023-03-14T10:34:04;99756.0;;;11.93;54.95
61676;BME280;47574;52.090;5.244;2023-03-14T10:35:41;99769.0;;;11.72;54.53
61676;BME280;47574;52.090;5.244;2023-03-14T10:37:21;99775.0;;;11.76;54.42
61676;BME280;47574;52.090;5.244;2023-03-14T10:38:58;99780.0;;;11.87;54.46
61676;BME280;47574;52.090;5.244;2023-03-14T10:40:53;99784.0;;;11.3;55.01
61676;BME280;47574;52.090;5.244;2023-03-14T10:44:10;99793.0;;;11.95;54.59
61676;BME280;47574;52.090;5.244;2023-03-14T10:45:52;99798.0;;;12.44;53.74
61676;BME280;47574;52.090;5.244;2023-03-14T10:47:32;99813.0;;;12.0;54.06
61676;BME280;47574;52.090;5.244;2023-03-14T10:49:25;99816.0;;;12.4;53.95
61676;BME280;47574;52.090;5.244;2023-03-14T10:52:47;99822.0;;;12.35;53.44
61676;BME280;47574;52.090;5.244;2023-03-14T10:54:24;99842.0;;;12.5;53.42
61676;BME280;47574;52.090;5.244;2023-03-14T10:56:06;99852.0;;;12.1;53.68
61676;BME280;47574;52.090;5.244;2023-03-14T10:57:43;99869.0;;;11.26;53.4
61676;BME280;47574;52.090;5.244;2023-03-14T11:01:02;99884.0;;;10.92;53.62
61676;BME280;47574;52.090;5.244;2023-03-14T11:02:55;99886.0;;;11.53;52.23
61676;BME280;47574;52.090;5.244;2023-03-14T11:04:55;99893.0;;;11.15;52.01
61676;BME280;47574;52.090;5.244;2023-03-14T11:06:39;99887.0;;;11.27;51.37
61676;BME280;47574;52.090;5.244;2023-03-14T11:08:25;99900.0;;;11.67;50.36
61676;BME280;47574;52.090;5.244;2023-03-14T11:10:12;99903.0;;;11.76;50.82
61676;BME280;47574;52.090;5.244;2023-03-14T11:13:44;99920.0;;;11.94;50.32
61676;BME280;47574;52.090;5.244;2023-03-14T11:15:31;99928.0;;;11.87;49.35
61676;BME280;47574;52.090;5.244;2023-03-14T11:17:15;99928.0;;;11.97;48.72
61676;BME280;47574;52.090;5.244;2023-03-14T11:19:08;99943.0;;;11.86;48.33
61676;BME280;47574;52.090;5.244;2023-03-14T11:21:08;99943.0;;;11.77;47.4
61676;BME280;47574;52.090;5.244;2023-03-14T11:22:54;99955.0;;;12.42;48.38
61676;BME280;47574;52.090;5.244;2023-03-14T11:26:33;99957.0;;;11.99;47.56
61676;BME280;47574;52.090;5.244;2023-03-14T11:28:18;99963.0;;;12.28;47.34
61676;BME280;47574;52.090;5.244;2023-03-14T11:30:04;99967.0;;;12.62;47.13
61676;BME280;47574;52.090;5.244;2023-03-14T11:31:52;99974.0;;;12.6;45.87
61676;BME280;47574;52.090;5.244;2023-03-14T11:33:36;99982.0;;;12.73;45.69
61676;BME280;47574;52.090;5.244;2023-03-14T11:35:30;99981.0;;;12.81;44.32
61676;BME280;47574;52.090;5.244;2023-03-14T11:38:56;99995.0;;;12.32;45.76
61676;BME280;47574;52.090;5.244;2023-03-14T11:40:34;99993.0;;;13.16;45.88
61676;BME280;47574;52.090;5.244;2023-03-14T11:42:13;100006.0;;;13.17;43.99
61676;BME280;47574;52.090;5.244;2023-03-14T11:43:54;100011.0;;;13.22;43.67
61676;BME280;47574;52.090;5.244;2023-03-14T11:47:15;100017.0;;;13.0;43.14
61676;BME280;47574;52.090;5.244;2023-03-14T11:49:00;100016.0;;;12.74;40.51
61676;BME280;47574;52.090;5.244;2023-03-14T11:50:40;100032.0;;;12.35;40.01
61676;BME280;47574;52.090;5.244;2023-03-14T11:52:23;100035.0;;;12.04;40.03
61676;BME280;47574;52.090;5.244;2023-03-14T11:54:11;100035.0;;;12.59;39.58
61676;BME280;47574;52.090;5.244;2023-03-14T11:57:26;100038.0;;;12.88;39.67
61676;BME280;47574;52.090;5.244;2023-03-14T11:59:05;100035.0;;;13.39;39.56
61676;BME280;47574;52.090;5.244;2023-03-14T12:00:47;100034.0;;;13.24;38.6